Аэропорт: Жуляны. Киев

ICAO: UKKK

METAR:
2019/03/26 13:00
UKKK 261300Z 30008G13MPS 260V330 9999 FEW038CB 08/M01 Q1011 R26/290058 NOSIG
METAR:
2019/03/26 12:15
TAF TAF UKKK 261104Z 2612/2712 27005G11MPS 9999 BKN012 TX07/2612Z TN00/2704Z 
      TEMPO 2612/2618 31009G14MPS 2100 -SHRASN BKN006 SCT015CB 
      BECMG 2618/2620 23004G09MPS 6000 BKN007 
      TEMPO 2620/2706 20006G12MPS 1000 -SHRASN BR BKN004 SCT012CB 
      BECMG 2706/2708 32003G08MPS 
      TEMPO 2708/2712 36006G12MPS 2100 -SHRASN BKN006 SCT015CB